Time;durP1;ratioP1;P1;durP2;ratioP2;P2;SDS_P1;SDS_P2;PMS_P1;PMS_P2;Temp;Humidity;BMP_temperature;BMP_pressure;BME280_temperature;BME280_humidity;BME280_pressure;Samples;Min_cycle;Max_cycle;Signal;HPM_P1;HPM_P2
2022/07/29 00:01:49;;;;;;;0.70;0.70;;;;;;;17.95;100.00;97138.31;5087342;28;20617;-67
2022/07/29 00:04:16;;;;;;;0.98;0.98;;;;;;;17.40;100.00;97044.38;5087415;28;20126;-60
2022/07/29 00:06:43;;;;;;;3.75;2.03;;;;;;;17.94;100.00;97119.88;5087513;28;20446;-60
2022/07/29 00:09:10;;;;;;;0.90;0.90;;;;;;;17.96;100.00;97139.09;5087287;28;20135;-60
2022/07/29 00:11:37;;;;;;;1.25;1.25;;;;;;;17.99;100.00;97138.25;5087167;28;20051;-60
2022/07/29 00:14:04;;;;;;;1.10;1.10;;;;;;;17.95;100.00;97120.69;5087489;28;20055;-67
2022/07/29 00:16:31;;;;;;;0.88;0.88;;;;;;;17.93;100.00;97131.50;5087190;28;20063;-59
2022/07/29 00:18:58;;;;;;;10.00;4.95;;;;;;;17.81;100.00;97118.03;5087366;28;20055;-60
2022/07/29 00:21:27;;;;;;;6.57;5.22;;;;;;;17.88;100.00;97131.94;5087595;28;20047;-60
2022/07/29 00:23:54;;;;;;;7.90;4.90;;;;;;;17.90;100.00;97152.75;5087440;28;20044;-69
2022/07/29 00:26:21;;;;;;;9.85;5.13;;;;;;;17.88;100.00;97129.16;5086706;28;20077;-62
2022/07/29 00:28:48;;;;;;;8.40;4.95;;;;;;;17.44;100.00;97087.13;5087095;28;20529;-60
2022/07/29 00:31:14;;;;;;;5.00;4.50;;;;;;;17.81;100.00;97129.25;5086780;28;20048;-60
2022/07/29 00:33:41;;;;;;;6.28;4.95;;;;;;;17.80;100.00;97130.44;5087111;28;20614;-59
2022/07/29 00:36:08;;;;;;;9.20;5.85;;;;;;;17.86;100.00;97120.38;5087182;28;20434;-66
2022/07/29 00:38:34;;;;;;;6.45;4.72;;;;;;;17.78;100.00;97121.66;5086478;28;20086;-67
2022/07/29 00:41:01;;;;;;;6.05;4.63;;;;;;;17.41;100.00;97079.56;5086380;28;20064;-60
2022/07/29 00:43:28;;;;;;;8.30;5.00;;;;;;;17.33;100.00;97061.22;5086165;28;20060;-67
2022/07/29 00:45:55;;;;;;;7.95;5.65;;;;;;;17.41;100.00;97076.75;5086580;28;20052;-60
2022/07/29 00:48:22;;;;;;;10.48;5.75;;;;;;;17.11;100.00;97043.84;5086276;28;20063;-60
2022/07/29 00:50:49;;;;;;;8.15;4.80;;;;;;;17.76;100.00;97124.06;5085054;28;20386;-67
2022/07/29 00:53:16;;;;;;;9.63;5.15;;;;;;;17.78;100.00;97127.28;5086045;28;20430;-67
2022/07/29 00:55:43;;;;;;;8.63;5.70;;;;;;;17.79;100.00;97126.03;5085479;28;20059;-66
2022/07/29 00:58:13;;;;;;;6.38;5.47;;;;;;;17.69;100.00;97126.94;5086423;28;20048;-67
2022/07/29 01:00:40;;;;;;;19.23;6.78;;;;;;;17.45;100.00;97085.97;5086208;28;20059;-66
2022/07/29 01:03:08;;;;;;;11.45;6.60;;;;;;;17.52;100.00;97080.28;5086101;28;20087;-67
2022/07/29 01:05:35;;;;;;;6.53;5.82;;;;;;;17.71;100.00;97099.31;5084795;28;20052;-60
2022/07/29 01:08:18;;;;;;;10.00;5.90;;;;;;;17.75;100.00;97116.91;5086380;28;20075;-67
2022/07/29 01:10:45;;;;;;;10.27;5.75;;;;;;;17.81;100.00;97115.22;5086188;28;20110;-67
2022/07/29 01:13:14;;;;;;;7.18;4.80;;;;;;;17.80;100.00;97130.44;5085985;28;20089;-60
2022/07/29 01:15:46;;;;;;;12.63;5.97;;;;;;;17.78;100.00;97111.22;5086305;28;20055;-68
2022/07/29 01:18:46;;;;;;;7.35;5.50;;;;;;;17.65;100.00;97112.19;5085840;28;20056;-68
2022/07/29 01:21:34;;;;;;;6.75;5.50;;;;;;;17.60;100.00;97109.81;5083955;28;20052;-67
2022/07/29 01:24:29;;;;;;;9.98;5.00;;;;;;;17.65;100.00;97112.19;5084813;28;20060;-60
2022/07/29 01:27:31;;;;;;;11.18;6.68;;;;;;;17.52;100.00;97113.91;5084549;28;20536;-61
2022/07/29 01:30:01;;;;;;;6.05;5.03;;;;;;;17.58;100.00;97118.63;5063321;28;20079;-67
2022/07/29 01:32:36;;;;;;;6.57;4.50;;;;;;;17.65;100.00;97114.97;5085666;28;20058;-61
2022/07/29 01:35:26;;;;;;;7.45;5.10;;;;;;;17.57;100.00;97105.06;5084776;28;20060;-59
2022/07/29 01:38:05;;;;;;;10.02;5.07;;;;;;;17.47;100.00;97106.75;5084362;28;20063;-68
2022/07/29 01:40:44;;;;;;;5.97;5.38;;;;;;;16.74;100.00;97006.56;5084427;27;20052;-68
2022/07/29 01:43:17;;;;;;;10.35;5.57;;;;;;;16.87;100.00;97035.63;5083429;28;20587;-68
2022/07/29 01:45:47;;;;;;;6.93;4.88;;;;;;;17.28;100.00;97101.66;5085428;28;20442;-60
2022/07/29 01:48:31;;;;;;;9.20;4.93;;;;;;;17.27;100.00;97102.09;5085386;28;20055;-60
2022/07/29 01:51:19;;;;;;;6.20;5.07;;;;;;;17.30;100.00;97107.66;5085168;28;20055;-60
2022/07/29 01:53:54;;;;;;;7.20;4.78;;;;;;;17.17;100.00;97097.34;5083650;28;20113;-67
2022/07/29 01:56:24;;;;;;;11.80;5.82;;;;;;;17.17;100.00;97081.38;5083838;28;20461;-67
2022/07/29 01:58:53;;;;;;;9.30;5.20;;;;;;;17.28;100.00;97093.28;5085372;28;20048;-68
2022/07/29 02:01:23;;;;;;;9.50;5.40;;;;;;;16.40;100.00;96959.63;5080637;28;20109;-63
2022/07/29 02:03:52;;;;;;;11.27;5.50;;;;;;;17.33;100.00;97089.22;5081215;28;20126;-68
2022/07/29 02:06:22;;;;;;;6.68;5.50;;;;;;;17.27;100.00;97079.69;5084788;28;20059;-69
2022/07/29 02:08:52;;;;;;;8.90;6.47;;;;;;;17.40;100.00;97094.78;5083333;28;20537;-61
2022/07/29 02:11:19;;;;;;;8.48;4.97;;;;;;;17.30;100.00;97084.47;5083561;28;20051;-60
2022/07/29 02:13:48;;;;;;;6.30;5.60;;;;;;;17.40;100.00;97094.78;5084664;28;20086;-60
2022/07/29 02:16:18;;;;;;;10.85;5.47;;;;;;;17.44;100.00;97095.53;5085100;28;20071;-69
2022/07/29 02:18:50;;;;;;;6.70;5.22;;;;;;;17.41;100.00;97101.97;5085287;28;20139;-69
2022/07/29 02:21:22;;;;;;;7.20;5.30;;;;;;;17.42;100.00;97092.38;5083809;28;20602;-60
2022/07/29 02:23:52;;;;;;;8.80;4.85;;;;;;;17.25;100.00;97054.09;5085400;28;20056;-68
2022/07/29 02:26:22;;;;;;;6.97;5.05;;;;;;;17.18;100.00;97073.78;5083433;28;20062;-60
2022/07/29 02:28:51;;;;;;;9.80;4.68;;;;;;;17.26;100.00;97106.09;5085411;28;20078;-69
2022/07/29 02:31:22;;;;;;;7.43;4.97;;;;;;;17.25;100.00;97093.28;5084360;28;20438;-68
2022/07/29 02:33:51;;;;;;;9.23;4.93;;;;;;;17.21;100.00;97081.34;5085159;28;20059;-68
2022/07/29 02:36:22;;;;;;;8.00;4.95;;;;;;;16.90;100.00;97071.19;5084478;28;20107;-68
2022/07/29 02:38:50;;;;;;;15.20;6.65;;;;;;;17.24;100.00;97102.91;5084989;28;20082;-68
2022/07/29 02:41:20;;;;;;;9.30;6.45;;;;;;;17.19;100.00;97090.16;5084378;28;20433;-60
2022/07/29 02:43:50;;;;;;;12.70;7.57;;;;;;;17.19;100.00;97089.34;5084303;28;20060;-63
2022/07/29 02:46:27;;;;;;;12.38;7.00;;;;;;;17.16;100.00;97090.16;5089904;28;20058;-60
2022/07/29 02:49:00;;;;;;;8.75;7.22;;;;;;;17.10;100.00;97086.22;5084789;28;20054;-68
2022/07/29 02:51:52;;;;;;;7.95;6.13;;;;;;;17.07;100.00;97082.22;5084700;28;20562;-68
2022/07/29 02:54:45;;;;;;;10.10;5.95;;;;;;;17.04;100.00;97090.69;5084799;28;20075;-68
2022/07/29 02:57:31;;;;;;;6.50;5.53;;;;;;;16.95;100.00;97073.53;5084568;28;20063;-61
2022/07/29 03:00:05;;;;;;;6.63;4.93;;;;;;;17.03;100.00;97072.28;5085071;28;20048;-67
2022/07/29 03:02:44;;;;;;;8.68;5.38;;;;;;;17.06;100.00;97091.84;5082849;28;20499;-60
2022/07/29 03:05:17;;;;;;;8.55;4.55;;;;;;;17.03;100.00;97091.88;5084496;28;20059;-68
2022/07/29 03:07:47;;;;;;;7.57;5.25;;;;;;;17.06;100.00;97128.22;5084368;28;20060;-62
2022/07/29 03:10:14;;;;;;;9.82;5.00;;;;;;;16.83;100.00;97104.81;5083029;28;20059;-69
2022/07/29 03:12:42;;;;;;;9.88;5.25;;;;;;;16.98;100.00;97089.50;5084359;28;20056;-68
2022/07/29 03:15:10;;;;;;;7.85;4.57;;;;;;;16.87;100.00;97105.56;5083032;28;20056;-68
2022/07/29 03:17:37;;;;;;;10.65;4.68;;;;;;;16.84;100.00;97098.00;5084695;28;20095;-61
2022/07/29 03:20:06;;;;;;;8.80;5.00;;;;;;;16.52;100.00;97062.63;5088487;28;20059;-69
2022/07/29 03:22:38;;;;;;;7.88;4.63;;;;;;;16.75;100.00;97108.84;5086484;28;20506;-68
2022/07/29 03:25:12;;;;;;;10.63;4.80;;;;;;;16.51;100.00;97094.63;5088465;28;20427;-68
2022/07/29 03:27:39;;;;;;;9.38;5.03;;;;;;;16.18;100.00;97047.63;5087912;28;20056;-60
2022/07/29 03:30:07;;;;;;;7.95;5.22;;;;;;;16.53;100.00;97114.56;5088090;28;20044;-68
2022/07/29 03:32:35;;;;;;;13.88;5.70;;;;;;;16.67;100.00;97112.91;5088216;28;20793;-68
2022/07/29 03:35:03;;;;;;;5.25;4.60;;;;;;;16.49;100.00;97087.81;5088035;28;20550;-68
2022/07/29 03:37:33;;;;;;;7.32;4.97;;;;;;;16.82;100.00;97109.59;5087816;28;20113;-68
2022/07/29 03:40:03;;;;;;;11.07;5.20;;;;;;;16.63;100.00;97089.75;5087947;28;20060;-69
2022/07/29 03:42:35;;;;;;;9.93;5.55;;;;;;;16.89;100.00;97164.72;5087731;28;20052;-68
2022/07/29 03:45:06;;;;;;;9.48;5.20;;;;;;;16.67;100.00;97056.94;5087758;28;20056;-60
2022/07/29 03:47:37;;;;;;;5.65;4.57;;;;;;;17.02;100.00;97107.09;5087787;28;20047;-60
2022/07/29 03:50:19;;;;;;;9.50;4.72;;;;;;;17.18;100.00;97115.75;5087897;28;20060;-61
2022/07/29 03:52:47;;;;;;;11.15;5.18;;;;;;;17.19;100.00;97106.16;5087572;28;20098;-62
2022/07/29 03:55:15;;;;;;;9.43;5.78;;;;;;;17.30;100.00;97115.25;5087641;28;20445;-60
2022/07/29 03:57:42;;;;;;;6.13;4.90;;;;;;;17.46;100.00;97121.16;5086004;28;20063;-68
2022/07/29 04:00:10;;;;;;;10.93;5.32;;;;;;;17.59;100.00;97113.84;5087783;28;20067;-68
2022/07/29 04:02:38;;;;;;;7.38;5.90;;;;;;;17.32;100.00;97062.44;5087590;28;20063;-68
2022/07/29 04:05:05;;;;;;;8.18;5.03;;;;;;;17.86;100.00;97128.78;5087750;28;20052;-68
2022/07/29 04:07:32;;;;;;;6.97;4.97;;;;;;;17.91;100.00;97119.91;5086918;28;20044;-60
2022/07/29 04:09:58;;;;;;;8.63;5.00;;;;;;;17.94;100.00;97130.31;5086033;28;20504;-68
2022/07/29 04:12:25;;;;;;;7.63;4.28;;;;;;;18.00;100.00;97117.44;5085553;28;20055;-60
2022/07/29 04:14:52;;;;;;;7.63;4.50;;;;;;;18.13;100.00;97132.47;5087206;28;20052;-61
2022/07/29 04:17:19;;;;;;;6.40;4.47;;;;;;;18.13;100.00;97142.91;5086796;28;20052;-60
2022/07/29 04:19:46;;;;;;;6.35;5.00;;;;;;;18.09;100.00;97137.34;5087344;28;20052;-61
2022/07/29 04:22:12;;;;;;;8.77;4.70;;;;;;;18.17;100.00;97135.25;5086818;28;20452;-63
2022/07/29 04:24:39;;;;;;;8.52;5.78;;;;;;;17.80;100.00;97063.19;5086840;28;20168;-69
2022/07/29 04:27:10;;;;;;;8.23;4.78;;;;;;;18.37;100.00;97131.41;5085326;28;20337;-69
2022/07/29 04:29:36;;;;;;;8.70;4.40;;;;;;;18.46;100.00;97140.16;5084909;28;20418;-70
2022/07/29 04:32:22;;;;;;;5.57;5.00;;;;;;;18.53;100.00;97137.25;5085646;28;20428;-62
2022/07/29 04:34:49;;;;;;;9.82;5.22;;;;;;;18.65;100.00;97145.09;5086857;28;20056;-69
2022/07/29 04:37:16;;;;;;;7.22;4.70;;;;;;;18.47;100.00;97096.84;5086995;28;20523;-69
2022/07/29 04:39:43;;;;;;;6.85;4.72;;;;;;;18.76;100.00;97114.88;5087107;28;20128;-69
2022/07/29 04:42:09;;;;;;;8.38;5.07;;;;;;;19.11;100.00;97136.84;5085400;28;20185;-61
2022/07/29 04:44:36;;;;;;;7.22;5.22;;;;;;;19.06;100.00;97106.41;5086084;28;20066;-69
2022/07/29 04:47:08;;;;;;;7.35;4.80;;;;;;;19.03;100.00;97095.28;5086498;28;20050;-69
2022/07/29 04:49:37;;;;;;;8.30;5.15;;;;;;;18.84;100.00;97060.22;5086587;28;20060;-69
2022/07/29 04:52:06;;;;;;;7.18;5.60;;;;;;;19.59;100.00;97133.69;5086008;28;20048;-69
2022/07/29 04:54:33;;;;;;;10.93;6.35;;;;;;;19.70;99.58;97133.50;5086301;28;20063;-67
2022/07/29 04:57:00;;;;;;;7.55;5.10;;;;;;;19.68;98.32;97131.13;5085686;28;20056;-65
2022/07/29 04:59:26;;;;;;;7.90;5.10;;;;;;;19.77;98.56;97139.03;5086335;28;20135;-68
2022/07/29 05:01:53;;;;;;;14.85;6.22;;;;;;;19.90;96.63;97125.94;5084366;28;20044;-68
2022/07/29 05:04:20;;;;;;;9.02;5.80;;;;;;;20.02;98.56;97139.38;5084744;28;20056;-68
2022/07/29 05:06:47;;;;;;;9.75;5.22;;;;;;;20.13;97.54;97117.47;5085655;28;20088;-61
2022/07/29 05:09:14;;;;;;;7.55;4.85;;;;;;;20.33;93.20;97150.03;5084497;28;20059;-61
2022/07/29 05:11:41;;;;;;;10.93;5.80;;;;;;;20.05;93.32;97099.13;5086001;28;20083;-61
2022/07/29 05:14:08;;;;;;;6.53;5.82;;;;;;;20.25;93.27;97125.31;5084573;28;20486;-69
2022/07/29 05:16:34;;;;;;;7.57;5.63;;;;;;;20.48;92.05;97139.31;5085695;28;20487;-69
2022/07/29 05:19:02;;;;;;;10.80;5.38;;;;;;;20.67;92.58;97144.94;5085885;28;20071;-68
2022/07/29 05:21:29;;;;;;;8.57;4.68;;;;;;;20.82;93.56;97148.22;5085751;28;20060;-68
2022/07/29 05:23:56;;;;;;;9.75;6.18;;;;;;;20.90;91.57;97138.41;5085603;28;20517;-60
2022/07/29 05:26:23;;;;;;;13.35;5.88;;;;;;;21.09;92.43;97139.63;5083918;28;20068;-64
2022/07/29 05:28:50;;;;;;;7.30;5.45;;;;;;;21.18;89.25;97126.53;5085488;28;20560;-61
2022/07/29 05:31:17;;;;;;;6.53;5.30;;;;;;;21.24;88.35;97133.25;5083599;28;20056;-69
2022/07/29 05:33:44;;;;;;;6.28;5.40;;;;;;;21.55;87.43;97148.59;5085399;28;20102;-69
2022/07/29 05:36:11;;;;;;;12.68;7.00;;;;;;;21.71;86.19;97154.22;5084958;28;20493;-61
2022/07/29 05:38:38;;;;;;;8.57;5.63;;;;;;;21.85;86.03;97148.25;5085581;28;20446;-61
2022/07/29 05:41:05;;;;;;;8.52;4.97;;;;;;;21.66;84.97;97072.97;5072915;28;20051;-60
2022/07/29 05:43:33;;;;;;;5.03;4.10;;;;;;;22.10;81.46;97131.47;5072189;28;20117;-61
2022/07/29 05:45:59;;;;;;;8.20;5.35;;;;;;;21.89;80.08;97069.97;5078274;28;20942;-76
2022/07/29 05:48:26;;;;;;;7.50;5.68;;;;;;;21.46;80.24;96979.28;5072974;28;20436;-59
2022/07/29 05:50:54;;;;;;;6.55;5.60;;;;;;;22.47;79.84;97121.59;5069949;27;20071;-75
2022/07/29 05:53:21;;;;;;;7.05;5.93;;;;;;;22.68;80.75;97151.28;5083480;28;20498;-57
2022/07/29 05:55:48;;;;;;;10.18;5.57;;;;;;;22.72;81.45;97149.13;5078971;28;20048;-70
2022/07/29 05:58:16;;;;;;;8.98;5.57;;;;;;;22.90;80.48;97155.06;5067938;28;20138;-59
2022/07/29 06:00:42;;;;;;;10.88;6.07;;;;;;;23.04;79.90;97157.47;5072035;28;20043;-60
2022/07/29 06:03:10;;;;;;;9.50;5.97;;;;;;;23.11;80.98;97157.25;5081893;28;20058;-61
2022/07/29 06:05:37;;;;;;;15.00;8.52;;;;;;;22.97;83.27;97137.91;5065442;28;20048;-60
2022/07/29 06:08:06;;;;;;;12.85;6.97;;;;;;;23.25;81.54;97154.00;5062823;28;20040;-74
2022/07/29 06:10:37;;;;;;;11.10;6.63;;;;;;;23.38;81.96;97163.28;5063653;28;20055;-60
2022/07/29 06:13:03;;;;;;;9.63;6.43;;;;;;;23.44;83.39;97156.63;5062492;28;20044;-74
2022/07/29 06:15:30;;;;;;;6.25;5.63;;;;;;;23.66;78.14;97162.41;5072109;28;20056;-74
2022/07/29 06:17:57;;;;;;;9.35;6.13;;;;;;;23.24;80.38;97160.88;5072409;28;20127;-60
2022/07/29 06:20:31;;;;;;;10.07;6.03;;;;;;;22.03;78.33;96922.91;5067541;28;20052;-73
2022/07/29 06:22:59;;;;;;;9.32;5.80;;;;;;;23.34;80.56;97089.09;5062744;28;20055;-69
2022/07/29 06:25:30;;;;;;;11.48;8.07;;;;;;;24.04;79.55;97151.84;5070510;28;20490;-69
2022/07/29 06:27:57;;;;;;;9.68;7.50;;;;;;;24.01;79.52;97137.81;5085742;28;20054;-72
2022/07/29 06:30:24;;;;;;;7.95;5.85;;;;;;;24.06;77.14;97134.41;5073678;28;20055;-59
2022/07/29 06:32:51;;;;;;;12.93;6.10;;;;;;;24.36;73.84;97154.34;5079664;28;20498;-73
2022/07/29 06:35:18;;;;;;;11.07;6.45;;;;;;;24.41;74.81;97133.94;5072640;28;20048;-60
2022/07/29 06:38:05;;;;;;;8.25;6.20;;;;;;;24.59;75.16;97162.41;5079967;28;20048;-72
2022/07/29 06:41:05;;;;;;;7.90;6.28;;;;;;;24.72;74.04;97153.88;5082066;28;20489;-58
2022/07/29 06:43:38;;;;;;;8.82;6.43;;;;;;;24.73;74.69;97156.25;5062394;28;20107;-71
2022/07/29 06:46:20;;;;;;;7.25;6.55;;;;;;;24.87;74.30;97152.88;5071531;28;20080;-70
2022/07/29 06:48:47;;;;;;;7.93;7.13;;;;;;;25.09;73.82;97150.81;5070846;28;20055;-68
2022/07/29 06:51:16;;;;;;;11.80;6.80;;;;;;;25.03;73.94;97141.34;5066446;28;20491;-72
2022/07/29 06:53:48;;;;;;;;;;;;;;;25.21;73.72;97147.09;5070798;28;20051;-72
2022/07/29 06:56:33;;;;;;;8.30;6.50;;;;;;;24.87;70.22;97096.19;5081088;28;19928;-59
2022/07/29 06:59:06;;;;;;;9.13;6.80;;;;;;;25.16;72.27;97144.09;5078687;28;20059;-72
2022/07/29 07:01:33;;;;;;;9.35;6.38;;;;;;;23.78;69.90;96932.41;5065817;28;20044;-57
2022/07/29 07:04:00;;;;;;;7.15;6.20;;;;;;;24.92;70.12;97084.28;5064638;28;20113;-57
2022/07/29 07:06:27;;;;;;;10.15;6.47;;;;;;;24.73;66.45;97081.78;5073284;28;20040;-64
2022/07/29 07:08:54;;;;;;;5.40;4.93;;;;;;;25.26;61.12;97148.53;5075357;28;20501;-69
2022/07/29 07:11:21;;;;;;;5.68;5.18;;;;;;;25.41;62.63;97145.97;5067195;28;20049;-70
2022/07/29 07:13:47;;;;;;;5.82;5.15;;;;;;;25.52;60.56;97149.16;5078287;28;20066;-70
2022/07/29 07:16:14;;;;;;;6.82;4.80;;;;;;;24.99;62.24;97106.66;5075847;28;20321;-58
2022/07/29 07:18:41;;;;;;;5.63;4.95;;;;;;;25.17;62.87;97135.13;5077215;28;20139;-59
2022/07/29 07:21:08;;;;;;;6.32;4.60;;;;;;;25.52;63.07;97149.16;5070244;27;20093;-59
2022/07/29 07:23:34;;;;;;;6.38;4.68;;;;;;;25.60;62.63;97127.75;5083104;28;20059;-74
2022/07/29 07:26:02;;;;;;;5.72;5.22;;;;;;;25.82;59.65;97140.63;5087235;28;20048;-58
2022/07/29 07:28:29;;;;;;;5.25;4.75;;;;;;;25.63;56.37;97121.94;5086701;28;20044;-74
2022/07/29 07:30:56;;;;;;;5.05;4.55;;;;;;;25.63;59.51;97136.13;5080927;28;20056;-71
2022/07/29 07:33:23;;;;;;;6.88;5.28;;;;;;;25.65;58.37;97084.59;5066858;28;20048;-59
2022/07/29 07:35:50;;;;;;;7.30;5.22;;;;;;;26.13;58.93;97132.06;5079631;28;20048;-72
2022/07/29 07:38:16;;;;;;;5.93;5.40;;;;;;;26.07;56.36;97145.28;5081849;28;20189;-77
2022/07/29 07:40:43;;;;;;;5.63;5.00;;;;;;;25.89;55.28;97048.69;5080018;28;20404;-69
2022/07/29 07:43:10;;;;;;;5.30;4.90;;;;;;;26.41;54.49;97113.75;5071516;28;20052;-56
2022/07/29 07:45:37;;;;;;;8.57;5.47;;;;;;;26.70;52.34;97125.44;5074097;28;20041;-71
2022/07/29 07:48:04;;;;;;;5.90;5.43;;;;;;;26.65;54.31;97100.53;5072462;28;20065;-68
2022/07/29 07:50:31;;;;;;;9.10;5.03;;;;;;;27.00;50.52;97130.16;5073819;28;20051;-58
2022/07/29 07:52:58;;;;;;;6.00;5.50;;;;;;;26.97;52.16;97131.09;5066115;28;20052;-61
2022/07/29 07:55:25;;;;;;;5.55;5.05;;;;;;;27.07;51.32;97126.97;5070486;28;20040;-74
2022/07/29 07:57:54;;;;;;;10.75;8.80;;;;;;;27.07;53.30;97120.50;5066200;28;20109;-68
2022/07/29 08:00:21;;;;;;;10.30;4.70;;;;;;;26.85;50.43;97085.78;5064236;28;20061;-59
2022/07/29 08:02:49;;;;;;;5.50;5.00;;;;;;;27.04;52.22;97105.19;5066668;28;20139;-59
2022/07/29 08:05:17;;;;;;;6.80;5.15;;;;;;;27.37;51.54;97111.75;5065835;28;20430;-71
2022/07/29 08:07:47;;;;;;;7.57;4.95;;;;;;;27.02;49.39;97032.97;5079394;28;20044;-70
2022/07/29 08:10:51;;;;;;;6.30;5.70;;;;;;;27.75;51.17;97106.19;5083338;28;20052;-58
2022/07/29 08:13:07;;;;;;;5.60;5.10;;;;;;;27.86;46.67;97109.31;5069889;28;20485;-60
2022/07/29 08:15:34;;;;;;;5.60;4.90;;;;;;;27.69;46.71;97110.19;5069928;28;20052;-69
2022/07/29 08:18:02;;;;;;;4.82;4.25;;;;;;;27.50;48.08;97081.03;5070160;28;20048;-63
2022/07/29 08:20:35;;;;;;;5.70;5.07;;;;;;;27.53;46.48;97045.91;5080300;28;20130;-61
2022/07/29 08:23:04;;;;;;;5.35;4.90;;;;;;;28.21;45.97;97112.44;5071883;28;20052;-60
2022/07/29 08:25:32;;;;;;;5.78;5.20;;;;;;;28.26;45.47;97102.41;5081875;28;20063;-68
2022/07/29 08:28:03;;;;;;;7.05;5.45;;;;;;;28.26;45.70;97108.13;5077025;28;20151;-59
2022/07/29 08:30:30;;;;;;;5.68;5.10;;;;;;;28.28;45.02;97085.63;5065968;28;20074;-61
2022/07/29 08:32:56;;;;;;;7.68;6.90;;;;;;;28.17;44.61;97078.41;5072218;28;20051;-69
2022/07/29 08:35:24;;;;;;;5.95;5.35;;;;;;;28.11;44.56;97108.84;5074816;28;20152;-59
2022/07/29 08:37:52;;;;;;;4.78;4.47;;;;;;;28.00;44.67;97090.72;5070999;28;20056;-60
2022/07/29 08:40:20;;;;;;;5.05;4.43;;;;;;;28.19;44.93;97086.47;5068811;28;20040;-59
2022/07/29 08:42:58;;;;;;;5.07;4.60;;;;;;;28.59;42.94;97114.53;5071132;28;20047;-59
2022/07/29 08:45:25;;;;;;;5.15;4.75;;;;;;;28.70;44.86;97086.25;5076242;28;20068;-69
2022/07/29 08:47:52;;;;;;;6.00;5.40;;;;;;;28.86;43.70;97094.31;5067579;28;20266;-60
2022/07/29 08:50:19;;;;;;;5.07;4.63;;;;;;;28.75;44.93;97082.72;5065029;28;20380;-68
2022/07/29 08:52:48;;;;;;;5.53;5.13;;;;;;;28.43;43.75;97009.50;5071993;28;20040;-59
2022/07/29 08:55:16;;;;;;;5.88;5.10;;;;;;;29.02;44.65;97096.69;5064463;28;20056;-60
2022/07/29 08:57:47;;;;;;;7.85;5.18;;;;;;;28.78;43.09;97047.50;5071029;28;20062;-69
2022/07/29 09:00:22;;;;;;;5.45;4.53;;;;;;;29.25;44.09;97075.84;5074595;28;20052;-60
2022/07/29 09:02:55;;;;;;;5.15;4.75;;;;;;;28.73;42.78;97008.25;5069312;28;20052;-69
2022/07/29 09:05:23;;;;;;;5.35;4.95;;;;;;;28.88;43.06;97011.91;5065423;28;20517;-59
2022/07/29 09:07:51;;;;;;;8.25;7.45;;;;;;;29.16;44.48;97073.09;5068413;28;20061;-69
2022/07/29 09:10:18;;;;;;;5.72;4.53;;;;;;;29.28;41.64;97074.84;5063877;28;20447;-62
2022/07/29 09:12:45;;;;;;;5.07;4.68;;;;;;;29.30;42.86;97066.59;5066373;28;20044;-62
2022/07/29 09:15:12;;;;;;;7.18;5.63;;;;;;;29.39;43.31;97063.63;5063201;28;20060;-63
2022/07/29 09:17:42;;;;;;;5.35;4.85;;;;;;;29.17;42.67;97034.72;5069138;28;20055;-60
2022/07/29 09:20:12;;;;;;;5.95;4.47;;;;;;;29.55;41.47;97060.25;5065412;28;20045;-60
2022/07/29 09:22:39;;;;;;;6.93;5.00;;;;;;;29.51;41.17;97071.88;5070390;28;20048;-60
2022/07/29 09:25:11;;;;;;;6.30;4.50;;;;;;;29.36;43.30;97007.53;5070503;28;20063;-61
2022/07/29 09:27:38;;;;;;;5.38;4.88;;;;;;;29.73;40.44;97065.75;5078976;28;20064;-62
2022/07/29 09:30:12;;;;;;;5.57;5.10;;;;;;;29.71;41.32;97028.31;5069127;28;20249;-60
2022/07/29 09:33:00;;;;;;;;;;;;;;;29.98;41.28;97052.84;5078474;28;20131;-60
2022/07/29 09:35:29;;;;;;;6.13;5.32;;;;;;;29.87;41.21;97024.91;5068932;28;19924;-60
2022/07/29 09:37:56;;;;;;;5.78;5.28;;;;;;;30.02;41.67;97062.00;5069996;28;20052;-68
2022/07/29 09:40:25;;;;;;;7.68;6.95;;;;;;;29.97;41.32;97022.72;5069981;28;20071;-61
2022/07/29 09:42:57;;;;;;;7.55;4.85;;;;;;;30.20;39.59;97041.69;5069636;28;20049;-60
2022/07/29 09:45:32;;;;;;;5.22;4.82;;;;;;;30.29;41.50;97042.38;5064787;28;20067;-68
2022/07/29 09:48:12;;;;;;;5.55;5.13;;;;;;;30.35;40.40;97043.22;5070451;28;20091;-59
2022/07/29 09:50:40;;;;;;;5.40;5.00;;;;;;;29.85;39.93;97070.31;5066589;28;20059;-69
2022/07/29 09:53:10;;;;;;;5.80;4.80;;;;;;;30.24;40.93;97042.31;5067315;28;20076;-69
2022/07/29 09:55:55;;;;;;;5.15;4.72;;;;;;;29.69;40.85;96984.41;5069401;28;20485;-68
2022/07/29 09:58:22;;;;;;;5.32;4.93;;;;;;;30.44;42.95;97034.50;5072867;28;20261;-59
2022/07/29 10:00:52;;;;;;;5.50;5.00;;;;;;;30.61;40.36;97032.59;5064500;28;20051;-60
2022/07/29 10:03:19;;;;;;;4.97;4.68;;;;;;;30.70;42.15;97038.16;5069942;28;20056;-61
2022/07/29 10:06:03;;;;;;;5.70;5.20;;;;;;;30.85;39.80;97023.75;5065022;28;20048;-61
2022/07/29 10:08:31;;;;;;;4.93;4.60;;;;;;;31.06;38.98;97021.63;5071520;28;20522;-67
2022/07/29 10:11:27;;;;;;;5.32;4.93;;;;;;;30.41;39.39;97024.06;5063256;28;20111;-66
2022/07/29 10:14:14;;;;;;;5.18;4.82;;;;;;;29.82;40.49;97010.53;5064509;28;20065;-60
2022/07/29 10:16:41;;;;;;;5.20;4.80;;;;;;;29.73;39.08;96974.34;5067714;28;20059;-67
2022/07/29 10:19:08;;;;;;;5.40;5.00;;;;;;;30.33;39.05;97016.44;5066347;28;20060;-62
2022/07/29 10:21:35;;;;;;;6.72;5.00;;;;;;;30.37;39.38;97017.78;5064244;28;20458;-67
2022/07/29 10:24:03;;;;;;;5.05;4.65;;;;;;;30.67;38.90;97004.84;5069405;28;20049;-62
2022/07/29 10:26:30;;;;;;;5.90;4.90;;;;;;;30.88;38.00;97003.50;5078204;28;20525;-68
2022/07/29 10:28:57;;;;;;;6.22;4.95;;;;;;;30.76;37.98;97021.84;5074143;28;20060;-62
2022/07/29 10:31:36;;;;;;;5.50;5.00;;;;;;;30.94;38.16;97001.47;5064735;28;20071;-70
2022/07/29 10:34:41;;;;;;;5.32;4.93;;;;;;;31.12;37.90;97002.41;5068378;28;20044;-67
2022/07/29 10:37:19;;;;;;;5.50;5.00;;;;;;;31.10;38.17;96999.25;5070552;28;20483;-59
2022/07/29 10:41:26;;;;;;;7.38;4.57;;;;;;;31.13;37.73;97015.41;5069866;28;20510;-60
2022/07/29 10:43:00;;;;;;;5.07;4.60;;;;;;;31.34;37.40;96997.66;5071331;28;20059;-59
2022/07/29 10:45:29;;;;;;;5.85;5.30;;;;;;;31.01;38.55;97002.31;5067382;28;20061;-60
2022/07/29 10:48:05;;;;;;;5.30;4.90;;;;;;;31.34;39.15;96997.66;5068719;28;20044;-57
2022/07/29 10:51:12;;;;;;;6.28;5.78;;;;;;;31.87;39.51;96988.34;5067701;28;20052;-58
2022/07/29 10:53:51;;;;;;;5.72;5.22;;;;;;;31.83;37.13;96993.53;5037700;28;20450;-70
2022/07/29 10:56:30;;;;;;;5.57;5.18;;;;;;;31.89;35.54;96983.69;5030254;28;20139;-59
2022/07/29 10:59:26;;;;;;;5.38;5.07;;;;;;;31.77;37.47;96984.13;5063092;28;20044;-74
2022/07/29 11:02:02;;;;;;;;;;;;;;;31.63;37.47;96991.59;5080539;28;20072;-61
2022/07/29 11:04:48;;;;;;;5.07;4.68;;;;;;;31.77;37.10;96987.78;5067980;28;19971;-59
2022/07/29 11:07:38;;;;;;;5.72;5.20;;;;;;;31.57;37.70;96969.97;5068443;28;20109;-69
2022/07/29 11:10:15;;;;;;;11.20;7.22;;;;;;;31.96;37.20;96979.56;5063522;28;20060;-61
2022/07/29 11:12:42;;;;;;;5.65;5.15;;;;;;;31.86;37.23;96975.34;5069079;28;20609;-67
2022/07/29 11:15:20;;;;;;;6.28;5.38;;;;;;;31.55;36.91;96921.00;5070576;28;20052;-59
2022/07/29 11:17:53;;;;;;;5.32;4.82;;;;;;;32.04;35.74;96969.94;5074124;28;20063;-77
2022/07/29 11:20:45;;;;;;;5.63;5.22;;;;;;;32.04;36.10;96917.59;5065305;28;20044;-59
2022/07/29 11:23:28;;;;;;;5.38;4.85;;;;;;;32.47;36.04;96967.75;5069947;28;20332;-61
2022/07/29 11:26:12;;;;;;;5.88;5.47;;;;;;;32.63;35.53;96958.41;5064566;28;20814;-67
2022/07/29 11:28:42;;;;;;;6.03;5.40;;;;;;;32.28;35.89;96920.75;5068065;28;20060;-71
2022/07/29 11:31:10;;;;;;;5.80;5.30;;;;;;;32.30;35.93;96913.22;5069810;28;20044;-69
2022/07/29 11:33:39;;;;;;;8.27;7.00;;;;;;;32.52;35.89;96941.16;5065737;28;20063;-61
2022/07/29 11:36:22;;;;;;;7.07;5.38;;;;;;;32.12;36.44;96930.88;5063315;28;20060;-70
2022/07/29 11:39:26;;;;;;;5.85;5.35;;;;;;;32.49;36.29;96947.16;5070290;28;20164;-65
2022/07/29 11:42:21;;;;;;;5.35;4.85;;;;;;;32.45;36.09;96941.69;5075452;28;20613;-66
2022/07/29 11:45:06;;;;;;;8.38;5.03;;;;;;;32.46;35.94;96934.66;5070802;28;20055;-58
2022/07/29 11:47:57;;;;;;;6.82;5.22;;;;;;;32.23;35.97;96935.88;5071509;28;20042;-62
2022/07/29 11:50:44;;;;;;;5.43;5.03;;;;;;;32.11;36.11;96879.78;5073885;28;20059;-65